Time;durP1;ratioP1;P1;durP2;ratioP2;P2;SDS_P1;SDS_P2;PMS_P1;PMS_P2;Temp;Humidity;BMP_temperature;BMP_pressure;BME280_temperature;BME280_humidity;BME280_pressure;Samples;Min_cycle;Max_cycle;Signal;HPM_P1;HPM_P2
2022/07/21 00:00:25;;;;;;;20.58;15.50;;;;;;;20.06;84.27;101644.16;5068715;28;20041;-76
2022/07/21 00:02:55;;;;;;;18.17;15.80;;;;;;;20.05;84.39;101653.16;5067775;28;20052;-77
2022/07/21 00:05:24;;;;;;;18.80;15.73;;;;;;;20.06;84.82;101654.88;5073231;28;20065;-78
2022/07/21 00:07:53;;;;;;;19.85;16.17;;;;;;;20.05;84.91;101654.03;5066979;28;20107;-76
2022/07/21 00:10:24;;;;;;;19.92;17.50;;;;;;;20.05;85.04;101653.16;5073204;28;20037;-76
2022/07/21 00:12:54;;;;;;;19.70;17.02;;;;;;;20.04;85.31;101648.78;5071617;28;20041;-76
2022/07/21 00:15:25;;;;;;;22.17;18.83;;;;;;;20.03;85.41;101647.91;5074226;28;20048;-75
2022/07/21 00:17:53;;;;;;;21.15;18.05;;;;;;;20.05;85.44;101645.13;5072223;28;20056;-76
2022/07/21 00:20:21;;;;;;;21.10;18.05;;;;;;;20.07;85.50;101653.94;5073971;28;20037;-74
2022/07/21 00:22:48;;;;;;;20.88;17.08;;;;;;;20.11;85.51;101650.13;5071336;28;20045;-74
2022/07/21 00:25:16;;;;;;;16.70;14.98;;;;;;;20.11;84.95;101639.44;5064966;27;20505;-74
2022/07/21 00:27:43;;;;;;;17.90;14.00;;;;;;;20.15;84.51;101636.47;5059158;28;20650;-75
2022/07/21 00:30:12;;;;;;;17.50;13.88;;;;;;;20.12;83.55;101643.84;5068329;28;20046;-77
2022/07/21 00:32:40;;;;;;;15.27;13.35;;;;;;;20.07;83.28;101646.78;5071225;28;20049;-77
2022/07/21 00:35:10;;;;;;;16.40;14.50;;;;;;;20.01;83.32;101639.09;5073288;28;20044;-77
2022/07/21 00:37:39;;;;;;;16.10;13.70;;;;;;;19.98;83.30;101637.47;5066361;28;20090;-76
2022/07/21 00:40:09;;;;;;;14.77;12.95;;;;;;;19.93;82.73;101634.19;5071465;28;20040;-77
2022/07/21 00:42:36;;;;;;;16.10;13.07;;;;;;;19.85;82.96;101637.31;5073755;28;20091;-78
2022/07/21 00:45:07;;;;;;;15.63;12.85;;;;;;;19.73;83.03;101627.25;5072058;28;20153;-77
2022/07/21 00:47:36;;;;;;;14.48;12.43;;;;;;;19.67;82.55;101638.31;5071473;28;20041;-76
2022/07/21 00:50:14;;;;;;;14.93;13.32;;;;;;;19.63;83.25;101639.44;5069308;28;20150;-77
2022/07/21 00:52:42;;;;;;;14.65;12.25;;;;;;;19.60;83.27;101634.25;5072033;28;20091;-77
2022/07/21 00:55:18;;;;;;;15.57;12.52;;;;;;;19.57;82.82;101631.75;5072331;28;20123;-77
2022/07/21 00:57:46;;;;;;;15.43;12.68;;;;;;;19.49;83.03;101629.50;5070405;28;20049;-77
2022/07/21 01:00:25;;;;;;;14.90;12.05;;;;;;;19.46;83.57;101632.34;5070130;28;20129;-77
2022/07/21 01:02:57;;;;;;;14.07;11.35;;;;;;;19.48;83.45;101625.97;5071858;28;20077;-78
2022/07/21 01:05:25;;;;;;;16.00;11.70;;;;;;;19.41;82.88;101619.22;5068765;28;20507;-76
2022/07/21 01:07:55;;;;;;;13.90;12.40;;;;;;;19.34;82.80;101617.84;5068731;28;20048;-76
2022/07/21 01:10:24;;;;;;;16.33;13.50;;;;;;;19.30;83.56;101622.50;5066559;28;20057;-75
2022/07/21 01:12:52;;;;;;;15.32;13.60;;;;;;;19.33;84.22;101629.47;5071410;28;20033;-75
2022/07/21 01:15:20;;;;;;;14.30;12.80;;;;;;;19.33;84.16;101627.66;5061947;28;20048;-75
2022/07/21 01:17:48;;;;;;;14.20;12.27;;;;;;;19.31;83.96;101624.22;5069268;28;20087;-75
2022/07/21 01:20:19;;;;;;;14.32;12.82;;;;;;;19.30;84.16;101630.53;5070939;28;20041;-75
2022/07/21 01:22:52;;;;;;;17.55;13.43;;;;;;;19.32;84.09;101633.97;5062499;28;21004;-75
2022/07/21 01:25:22;;;;;;;16.45;13.77;;;;;;;19.33;83.81;101643.69;5070004;28;20494;-75
2022/07/21 01:27:49;;;;;;;16.48;13.38;;;;;;;19.30;83.93;101630.53;5071210;28;20547;-75
2022/07/21 01:30:17;;;;;;;15.52;13.55;;;;;;;19.26;84.18;101620.94;5069054;28;20091;-76
2022/07/21 01:32:46;;;;;;;18.05;14.63;;;;;;;19.24;84.21;101617.47;5067615;28;20148;-75
2022/07/21 01:35:15;;;;;;;15.68;14.00;;;;;;;19.23;84.76;101619.31;5063274;28;20048;-76
2022/07/21 01:37:47;;;;;;;16.95;14.88;;;;;;;19.20;84.66;101618.59;5068517;28;20037;-76
2022/07/21 01:43:05;;;;;;;15.60;13.48;;;;;;;19.12;84.89;101611.00;5052215;28;20054;-75
2022/07/21 01:45:42;;;;;;;16.15;14.23;;;;;;;19.09;84.77;101612.03;5066110;28;20036;-74
2022/07/21 01:48:09;;;;;;;15.65;13.57;;;;;;;19.07;85.05;101615.75;5070699;28;20037;-75
2022/07/21 01:50:37;;;;;;;17.65;14.25;;;;;;;19.02;84.90;101618.66;5069889;28;20553;-76
2022/07/21 01:53:04;;;;;;;16.08;14.13;;;;;;;18.99;85.19;101618.81;5072431;28;20847;-76
2022/07/21 01:55:33;;;;;;;16.38;14.60;;;;;;;18.97;85.10;101612.69;5070300;28;20119;-76
2022/07/21 01:58:01;;;;;;;16.08;14.30;;;;;;;18.96;85.30;101613.63;5072146;28;20048;-78
2022/07/21 02:00:29;;;;;;;16.80;14.88;;;;;;;18.97;85.37;101606.50;5069519;28;20111;-78
2022/07/21 02:02:56;;;;;;;15.73;14.10;;;;;;;18.96;85.52;101612.78;5072407;28;20106;-77
2022/07/21 02:05:23;;;;;;;18.58;14.48;;;;;;;18.95;85.38;101616.41;5067851;28;20148;-77
2022/07/21 02:07:50;;;;;;;18.30;14.27;;;;;;;18.94;85.28;101618.19;5072142;28;20649;-76
2022/07/21 02:10:18;;;;;;;16.80;14.50;;;;;;;18.90;85.08;101620.13;5063842;28;20037;-76
2022/07/21 02:12:45;;;;;;;17.00;14.32;;;;;;;18.89;85.46;101615.72;5070935;28;20048;-76
2022/07/21 02:15:12;;;;;;;16.65;14.77;;;;;;;18.87;85.99;101616.75;5070722;28;20052;-76
2022/07/21 02:17:40;;;;;;;17.77;13.95;;;;;;;18.85;85.73;101614.19;5067877;28;20159;-76
2022/07/21 02:20:07;;;;;;;17.02;14.48;;;;;;;18.83;85.48;101607.19;5068788;28;20033;-76
2022/07/21 02:22:36;;;;;;;17.13;14.40;;;;;;;18.81;85.66;101615.28;5071642;28;20044;-76
2022/07/21 02:25:04;;;;;;;17.63;13.05;;;;;;;18.81;85.77;101609.09;5069931;28;20127;-75
2022/07/21 02:27:31;;;;;;;18.33;13.27;;;;;;;18.78;85.63;101600.28;5071899;28;20178;-76
2022/07/21 02:29:58;;;;;;;16.92;14.68;;;;;;;18.76;85.54;101604.84;5070843;28;20044;-76
2022/07/21 02:32:25;;;;;;;17.55;14.30;;;;;;;18.75;85.54;101621.81;5072286;28;20044;-74
2022/07/21 02:34:53;;;;;;;14.15;12.68;;;;;;;18.77;85.89;101629.75;5068921;28;20071;-74
2022/07/21 02:37:20;;;;;;;18.45;14.55;;;;;;;18.82;85.83;101621.50;5069941;28;20536;-74
2022/07/21 02:39:47;;;;;;;17.50;14.68;;;;;;;18.84;85.92;101620.47;5068887;28;20129;-73
2022/07/21 02:42:14;;;;;;;16.42;13.60;;;;;;;18.87;86.03;101614.09;5069493;28;20064;-76
2022/07/21 02:44:41;;;;;;;17.77;14.52;;;;;;;18.91;85.90;101616.53;5071085;28;20484;-74
2022/07/21 02:47:08;;;;;;;17.42;14.27;;;;;;;18.93;85.77;101617.34;5072146;28;20095;-74
2022/07/21 02:49:35;;;;;;;16.77;13.50;;;;;;;18.95;85.51;101621.75;5068981;28;20088;-75
2022/07/21 02:52:03;;;;;;;16.58;13.93;;;;;;;18.96;85.74;101623.47;5072181;28;20073;-74
2022/07/21 02:54:32;;;;;;;15.70;14.10;;;;;;;18.98;85.99;101621.56;5069633;28;20060;-74
2022/07/21 02:56:59;;;;;;;16.30;14.55;;;;;;;19.01;86.10;101614.25;5070807;28;20074;-74
2022/07/21 02:59:26;;;;;;;17.65;13.88;;;;;;;19.07;86.08;101611.25;5068609;28;20088;-74
2022/07/21 03:01:53;;;;;;;16.67;14.57;;;;;;;19.12;85.36;101610.16;5069908;28;20193;-74
2022/07/21 03:04:20;;;;;;;16.20;13.50;;;;;;;19.11;85.31;101606.59;5071935;28;20033;-74
2022/07/21 03:06:47;;;;;;;17.25;14.18;;;;;;;19.12;85.17;101599.47;5070259;28;20072;-75
2022/07/21 03:09:16;;;;;;;19.92;14.43;;;;;;;19.12;85.32;101602.97;5068916;28;20045;-75
2022/07/21 03:11:43;;;;;;;17.60;14.48;;;;;;;19.12;85.32;101605.66;5066580;28;20052;-75
2022/07/21 03:14:10;;;;;;;19.77;14.77;;;;;;;19.09;85.26;101596.00;5071557;28;20110;-75
2022/07/21 03:16:37;;;;;;;19.13;15.48;;;;;;;19.09;85.37;101605.81;5067827;28;20117;-75
2022/07/21 03:19:04;;;;;;;18.58;15.35;;;;;;;19.09;85.13;101608.47;5071091;28;20496;-75
2022/07/21 03:21:39;;;;;;;15.65;13.82;;;;;;;19.08;85.34;101598.75;5070069;28;20087;-75
2022/07/21 03:24:07;;;;;;;18.80;14.68;;;;;;;19.11;85.30;101606.59;5071493;28;20045;-75
2022/07/21 03:26:38;;;;;;;17.65;14.68;;;;;;;19.14;85.18;101610.91;5072777;28;20037;-77
2022/07/21 03:29:05;;;;;;;17.98;15.98;;;;;;;19.13;85.28;101603.88;5052495;28;20053;-77
2022/07/21 03:31:32;;;;;;;18.75;14.05;;;;;;;19.11;85.12;101605.75;5067905;28;20071;-77
2022/07/21 03:34:00;;;;;;;17.13;15.05;;;;;;;19.12;85.30;101612.81;5071596;28;20049;-77
2022/07/21 03:36:27;;;;;;;18.15;14.65;;;;;;;19.14;85.67;101614.47;5068019;28;20578;-75
2022/07/21 03:38:54;;;;;;;19.33;15.45;;;;;;;19.13;85.37;101617.22;5066844;28;20044;-73
2022/07/21 03:41:21;;;;;;;18.67;15.02;;;;;;;19.12;85.12;101608.31;5070705;28;20041;-74
2022/07/21 03:43:49;;;;;;;19.52;15.30;;;;;;;19.10;85.16;101618.22;5073307;28;20037;-75
2022/07/21 03:46:16;;;;;;;20.95;16.20;;;;;;;19.11;85.20;101611.09;5071495;28;20128;-74
2022/07/21 03:48:43;;;;;;;21.55;17.63;;;;;;;19.09;85.31;101614.72;5075066;28;20531;-74
2022/07/21 03:51:18;;;;;;;19.48;16.27;;;;;;;19.12;85.44;101615.50;5070514;28;20041;-74
2022/07/21 03:53:45;;;;;;;18.70;16.60;;;;;;;19.11;85.54;101617.28;5074827;28;20045;-74
2022/07/21 03:56:12;;;;;;;20.02;14.23;;;;;;;19.11;85.23;101619.97;5070873;28;20154;-74
2022/07/21 03:58:40;;;;;;;21.10;17.67;;;;;;;19.11;85.33;101603.06;5072973;28;21045;-73
2022/07/21 04:01:07;;;;;;;22.02;16.25;;;;;;;19.13;85.21;101603.88;5069902;28;20111;-73
2022/07/21 04:03:35;;;;;;;20.75;15.55;;;;;;;19.12;85.07;101605.66;5073334;28;20482;-72
2022/07/21 04:06:02;;;;;;;20.58;16.73;;;;;;;19.12;85.06;101599.47;5073392;28;20499;-73
2022/07/21 04:08:30;;;;;;;19.10;17.02;;;;;;;19.10;85.24;101591.50;5073091;28;20033;-72
2022/07/21 04:10:58;;;;;;;22.13;18.30;;;;;;;19.10;85.33;101591.50;5070585;28;20033;-72
2022/07/21 04:13:25;;;;;;;22.13;17.13;;;;;;;19.10;85.47;101596.84;5072579;28;20037;-72
2022/07/21 04:15:52;;;;;;;21.83;17.73;;;;;;;19.08;85.40;101596.06;5072982;28;20100;-72
2022/07/21 04:18:20;;;;;;;20.15;16.85;;;;;;;19.08;85.32;101598.75;5071290;28;20053;-74
2022/07/21 04:20:48;;;;;;;22.13;17.42;;;;;;;19.07;85.30;101599.72;5070010;28;20120;-74
2022/07/21 04:23:15;;;;;;;24.70;18.00;;;;;;;19.07;85.50;101600.56;5073142;28;20041;-75
2022/07/21 04:25:42;;;;;;;22.17;18.38;;;;;;;19.07;85.66;101599.72;5070944;28;20044;-74
2022/07/21 04:28:11;;;;;;;21.05;17.38;;;;;;;19.07;85.87;101600.56;5071115;28;20099;-73
2022/07/21 04:30:38;;;;;;;21.75;18.13;;;;;;;19.10;85.90;101591.50;5070790;28;20148;-74
2022/07/21 04:33:06;;;;;;;22.90;17.85;;;;;;;19.14;85.61;101597.53;5070514;28;20091;-76
2022/07/21 04:35:33;;;;;;;24.52;17.88;;;;;;;19.17;85.67;101602.72;5073473;28;20063;-75
2022/07/21 04:38:01;;;;;;;22.02;19.63;;;;;;;19.17;84.96;101592.03;5066705;28;20041;-73
2022/07/21 04:40:28;;;;;;;20.42;17.17;;;;;;;19.20;84.89;101598.06;5072376;28;20125;-74
2022/07/21 04:42:55;;;;;;;24.05;18.30;;;;;;;19.21;84.77;101599.81;5071052;28;20033;-77
2022/07/21 04:45:22;;;;;;;24.00;18.42;;;;;;;19.26;85.00;101604.91;5067876;28;20045;-76
2022/07/21 04:47:54;;;;;;;22.35;17.90;;;;;;;19.29;84.34;101603.84;5068426;28;20041;-76
2022/07/21 04:50:26;;;;;;;23.60;19.30;;;;;;;19.29;84.90;101598.50;5071114;28;20045;-72
2022/07/21 04:52:54;;;;;;;26.05;17.77;;;;;;;19.31;84.51;101601.97;5068303;28;20045;-70
2022/07/21 04:55:22;;;;;;;24.77;17.63;;;;;;;19.27;84.04;101611.97;5071195;28;20040;-71
2022/07/21 04:57:52;;;;;;;23.58;18.42;;;;;;;19.26;84.61;101606.72;5072422;28;20041;-70
2022/07/21 05:00:24;;;;;;;22.65;18.30;;;;;;;19.27;84.37;101603.09;5068934;28;20037;-71
2022/07/21 05:02:53;;;;;;;23.33;18.45;;;;;;;19.31;84.29;101605.53;5070820;28;20111;-71
2022/07/21 05:05:20;;;;;;;26.65;18.40;;;;;;;19.37;84.46;101607.00;5072109;28;20037;-71
2022/07/21 05:07:48;;;;;;;22.30;17.77;;;;;;;19.41;83.57;101608.53;5073381;28;20744;-71
2022/07/21 05:10:18;;;;;;;25.27;18.27;;;;;;;19.40;83.87;101606.81;5073492;28;20446;-71
2022/07/21 05:12:46;;;;;;;22.42;17.27;;;;;;;19.42;83.32;101602.25;5072039;28;20150;-70
2022/07/21 05:15:14;;;;;;;27.67;19.08;;;;;;;19.48;83.45;101595.69;5072547;28;20045;-70
2022/07/21 05:17:41;;;;;;;26.65;18.55;;;;;;;19.53;83.00;101593.63;5071270;28;20076;-71
2022/07/21 05:20:10;;;;;;;25.15;18.23;;;;;;;19.54;82.24;101590.88;5067838;28;20053;-71
2022/07/21 05:22:37;;;;;;;26.30;17.50;;;;;;;19.55;82.32;101587.25;5070775;28;20068;-71
2022/07/21 05:25:06;;;;;;;30.48;18.83;;;;;;;19.64;82.75;101596.53;5076014;28;20045;-71
2022/07/21 05:27:34;;;;;;;23.98;16.65;;;;;;;19.74;82.19;101593.38;5073869;28;20040;-70
2022/07/21 05:30:04;;;;;;;22.73;17.70;;;;;;;19.82;82.24;101586.59;5070269;28;20041;-72
2022/07/21 05:32:32;;;;;;;28.15;19.75;;;;;;;19.82;81.68;101589.28;5069861;28;20078;-71
2022/07/21 05:34:59;;;;;;;19.65;16.98;;;;;;;19.81;81.68;101592.06;5074141;28;20044;-70
2022/07/21 05:37:27;;;;;;;26.00;19.98;;;;;;;19.78;82.20;101593.09;5070679;28;20051;-70
2022/07/21 05:39:58;;;;;;;26.67;19.73;;;;;;;19.79;82.45;101584.09;5073100;28;20050;-71
2022/07/21 05:42:27;;;;;;;24.23;18.98;;;;;;;19.82;82.64;101580.41;5071225;28;20055;-71
2022/07/21 05:44:56;;;;;;;25.00;19.35;;;;;;;19.82;81.94;101581.25;5072487;28;20041;-70
2022/07/21 05:47:24;;;;;;;26.95;17.95;;;;;;;19.81;81.37;101582.19;5073617;28;20049;-70
2022/07/21 05:49:51;;;;;;;27.73;17.98;;;;;;;19.88;81.55;101577.41;5090789;28;20046;-70
2022/07/21 05:52:18;;;;;;;25.88;18.25;;;;;;;19.99;81.42;101577.63;5069834;28;20114;-70
2022/07/21 05:54:50;;;;;;;22.08;18.92;;;;;;;20.08;80.64;101576.25;5073761;28;20146;-70
2022/07/21 05:57:18;;;;;;;19.95;17.13;;;;;;;20.15;80.33;101585.63;5072812;28;20041;-70
2022/07/21 05:59:46;;;;;;;23.20;17.95;;;;;;;20.29;80.66;101584.81;5088587;28;20848;-71
2022/07/21 06:02:14;;;;;;;24.48;17.50;;;;;;;20.42;79.49;101581.41;5079146;28;20090;-69
2022/07/21 06:04:41;;;;;;;25.10;17.75;;;;;;;20.60;79.08;101574.06;5080599;28;20123;-69
2022/07/21 06:07:08;;;;;;;19.50;15.00;;;;;;;21.02;77.20;101587.59;5082152;28;20124;-69
2022/07/21 06:09:35;;;;;;;20.27;15.10;;;;;;;21.19;75.44;101582.03;5083702;28;20053;-69
2022/07/21 06:12:03;;;;;;;19.70;14.95;;;;;;;21.48;75.60;101581.97;5071220;28;20069;-69
2022/07/21 06:14:30;;;;;;;18.30;13.15;;;;;;;21.44;74.71;101583.13;5070576;28;20132;-69
2022/07/21 06:16:57;;;;;;;23.95;13.48;;;;;;;21.36;74.90;101583.63;5072226;28;20041;-68
2022/07/21 06:19:25;;;;;;;20.63;13.63;;;;;;;21.36;74.21;101585.47;5071636;28;20119;-69
2022/07/21 06:21:59;;;;;;;18.95;12.50;;;;;;;21.24;73.91;101589.78;5072372;28;20045;-68
2022/07/21 06:24:26;;;;;;;18.75;13.05;;;;;;;21.19;74.68;101597.25;5071459;28;20041;-68
2022/07/21 06:26:57;;;;;;;29.98;13.30;;;;;;;21.18;74.87;101599.06;5068999;28;20419;-69
2022/07/21 06:29:31;;;;;;;33.10;11.82;;;;;;;21.18;75.13;101592.84;5072080;28;20052;-68
2022/07/21 06:31:58;;;;;;;36.13;12.38;;;;;;;21.16;74.29;101597.44;5071835;28;20122;-69
2022/07/21 06:34:26;;;;;;;20.90;11.43;;;;;;;21.07;74.38;101598.88;5071857;28;20045;-69
2022/07/21 06:36:54;;;;;;;16.88;11.02;;;;;;;21.03;74.64;101600.03;5071667;28;20033;-69
2022/07/21 06:39:21;;;;;;;21.92;11.85;;;;;;;21.00;73.94;101609.16;5071664;28;20063;-69
2022/07/21 06:41:48;;;;;;;17.02;10.55;;;;;;;20.96;74.72;101596.88;5068176;28;20095;-69
2022/07/21 06:44:16;;;;;;;40.15;13.18;;;;;;;20.98;75.16;101597.66;5064516;28;20044;-68
2022/07/21 06:46:46;;;;;;;30.80;12.73;;;;;;;21.06;75.17;101598.03;5072312;28;20623;-67
2022/07/21 06:49:13;;;;;;;23.38;12.25;;;;;;;21.13;74.49;101600.31;5071901;28;20064;-68
2022/07/21 06:51:40;;;;;;;21.98;12.48;;;;;;;21.16;73.90;101597.44;5071992;28;20045;-69
2022/07/21 06:54:07;;;;;;;25.13;12.30;;;;;;;21.17;73.79;101608.06;5071521;28;20072;-69
2022/07/21 06:56:34;;;;;;;24.67;14.23;;;;;;;21.08;72.90;101604.16;5071101;28;20069;-70
2022/07/21 06:59:01;;;;;;;21.20;12.35;;;;;;;21.00;72.90;101608.25;5071976;28;20052;-73
2022/07/21 07:01:33;;;;;;;22.77;12.32;;;;;;;20.96;73.18;101610.28;5056011;28;20037;-71
2022/07/21 07:04:01;;;;;;;20.42;12.93;;;;;;;21.01;73.39;101608.16;5052026;28;20815;-72
2022/07/21 07:06:29;;;;;;;28.00;14.23;;;;;;;21.12;73.54;101622.72;5052226;28;20045;-72
2022/07/21 07:08:56;;;;;;;18.83;14.27;;;;;;;21.23;72.50;101622.91;5051853;28;20039;-71
2022/07/21 07:11:24;;;;;;;24.38;14.60;;;;;;;21.25;72.39;101627.22;5055042;28;20041;-73
2022/07/21 07:13:51;;;;;;;23.73;14.52;;;;;;;21.21;73.26;101625.69;5073978;28;20041;-72
2022/07/21 07:16:25;;;;;;;22.40;15.00;;;;;;;21.25;73.22;101631.72;5075376;28;20427;-70
2022/07/21 07:18:55;;;;;;;18.38;13.68;;;;;;;21.28;72.96;101627.97;5075185;28;20103;-70
2022/07/21 07:21:22;;;;;;;18.83;14.88;;;;;;;21.31;72.88;101628.66;5075226;28;20044;-70
2022/07/21 07:23:50;;;;;;;26.27;14.63;;;;;;;21.37;72.67;101632.75;5075308;28;20060;-70
2022/07/21 07:26:17;;;;;;;22.58;14.77;;;;;;;21.35;71.78;101632.84;5073159;28;20119;-70
2022/07/21 07:28:44;;;;;;;23.23;14.95;;;;;;;21.29;71.08;101627.00;5075235;28;20538;-70
2022/07/21 07:31:12;;;;;;;22.38;14.93;;;;;;;21.28;71.02;101619.91;5074809;28;20041;-70
2022/07/21 07:33:41;;;;;;;21.50;15.32;;;;;;;21.32;71.72;101627.66;5074681;28;20045;-71
2022/07/21 07:36:12;;;;;;;19.92;15.10;;;;;;;21.41;71.55;101629.78;5075006;28;20048;-70
2022/07/21 07:38:40;;;;;;;22.00;14.75;;;;;;;21.41;71.29;101632.47;5074774;28;20049;-70
2022/07/21 07:41:14;;;;;;;32.15;15.27;;;;;;;21.40;71.67;101630.75;5072899;28;20033;-71
2022/07/21 07:43:45;;;;;;;18.77;14.43;;;;;;;21.39;71.04;101630.81;5075097;28;20068;-70
2022/07/21 07:46:12;;;;;;;23.98;15.27;;;;;;;21.36;71.08;101631.91;5075189;28;20147;-70
2022/07/21 07:48:41;;;;;;;22.67;15.70;;;;;;;21.36;71.29;101629.22;5074960;28;20102;-71
2022/07/21 07:51:14;;;;;;;20.95;14.63;;;;;;;21.40;70.22;101630.75;5090054;28;20045;-70
2022/07/21 07:53:41;;;;;;;21.48;15.38;;;;;;;21.48;70.87;101629.38;5074630;28;20045;-70
2022/07/21 07:56:08;;;;;;;21.90;15.05;;;;;;;21.59;71.31;101636.75;5074103;28;20041;-70
2022/07/21 07:58:36;;;;;;;22.08;14.10;;;;;;;21.69;71.51;101638.78;5074708;28;20451;-70
2022/07/21 08:01:06;;;;;;;19.58;14.32;;;;;;;21.76;70.86;101633.00;5075329;28;20053;-71
2022/07/21 08:03:35;;;;;;;24.38;14.45;;;;;;;21.80;70.77;101635.38;5075574;28;20083;-71
2022/07/21 08:06:06;;;;;;;20.08;14.25;;;;;;;21.81;70.83;101630.88;5075309;28;20040;-71
2022/07/21 08:08:33;;;;;;;22.95;14.20;;;;;;;21.77;71.05;101630.22;5075425;28;20037;-71
2022/07/21 08:11:00;;;;;;;22.50;13.73;;;;;;;21.74;70.39;101632.22;5075169;28;20135;-71
2022/07/21 08:13:28;;;;;;;24.92;15.25;;;;;;;21.72;70.05;101640.38;5074850;28;20543;-71
2022/07/21 08:15:55;;;;;;;18.05;13.80;;;;;;;21.74;70.82;101640.28;5074153;28;20041;-70
2022/07/21 08:18:26;;;;;;;23.35;14.40;;;;;;;21.81;70.75;101636.25;5074393;28;20057;-71
2022/07/21 08:20:53;;;;;;;23.30;14.68;;;;;;;21.86;70.81;101632.31;5074127;28;20510;-71
2022/07/21 08:23:20;;;;;;;23.58;13.85;;;;;;;21.94;70.52;101639.84;5073397;28;20094;-70
2022/07/21 08:25:47;;;;;;;23.42;14.90;;;;;;;22.07;69.91;101630.97;5073151;28;20065;-70
2022/07/21 08:28:23;;;;;;;21.70;14.75;;;;;;;22.22;69.52;101631.75;5073793;28;20037;-70
2022/07/21 08:30:51;;;;;;;23.63;13.98;;;;;;;22.28;68.90;101632.22;5073905;28;20071;-71
2022/07/21 08:33:18;;;;;;;20.98;14.38;;;;;;;22.27;68.25;101625.13;5073286;28;20049;-71
2022/07/21 08:35:48;;;;;;;24.05;16.02;;;;;;;22.28;68.87;101612.56;5073949;28;20037;-70
2022/07/21 08:38:18;;;;;;;20.98;15.52;;;;;;;22.32;68.77;101608.69;5073618;28;20099;-70
2022/07/21 08:40:46;;;;;;;20.90;15.02;;;;;;;22.34;68.45;101604.09;5070996;28;20060;-70
2022/07/21 08:43:18;;;;;;;24.42;15.18;;;;;;;22.36;68.17;101590.53;5073978;28;20045;-70
2022/07/21 08:45:45;;;;;;;24.23;15.00;;;;;;;22.48;68.31;101595.97;5073664;28;20211;-70
2022/07/21 08:48:17;;;;;;;23.83;13.45;;;;;;;22.65;68.53;101605.53;5076049;28;20517;-70
2022/07/21 08:50:45;;;;;;;33.53;15.20;;;;;;;22.99;68.05;101609.50;5082618;28;20047;-70
2022/07/21 08:53:12;;;;;;;21.13;14.80;;;;;;;23.26;67.49;101602.19;5072929;28;20080;-69
2022/07/21 08:55:46;;;;;;;17.50;12.40;;;;;;;23.29;66.55;101611.00;5073928;28;20110;-70
2022/07/21 08:58:15;;;;;;;24.40;13.80;;;;;;;23.10;65.66;101621.22;5073510;28;20475;-71
2022/07/21 09:00:47;;;;;;;20.83;12.95;;;;;;;22.87;65.76;101627.38;5074021;28;20077;-71
2022/07/21 09:03:27;;;;;;;17.00;12.02;;;;;;;22.63;67.00;101622.75;5075606;28;20040;-71
2022/07/21 09:06:13;;;;;;;18.73;11.80;;;;;;;22.49;67.34;101623.69;5092729;28;20123;-71
2022/07/21 09:08:54;;;;;;;21.02;11.93;;;;;;;22.35;67.55;101621.91;5080000;28;20045;-70
2022/07/21 09:11:27;;;;;;;25.73;11.77;;;;;;;22.30;68.10;101616.88;5051794;28;20053;-70
2022/07/21 09:14:11;;;;;;;11.93;8.20;;;;;;;22.27;67.14;101618.91;5060496;28;20045;-69
2022/07/21 09:16:43;;;;;;;13.48;7.82;;;;;;;22.12;67.94;101621.66;5072071;28;20842;-69
2022/07/21 09:19:28;;;;;;;11.97;6.70;;;;;;;21.95;67.78;101622.75;5031102;28;1098495;-65
2022/07/21 09:21:59;;;;;;;13.60;5.95;;;;;;;21.72;68.75;101619.75;5072214;28;20037;-64
2022/07/21 09:24:38;;;;;;;11.15;6.03;;;;;;;21.62;69.51;101628.53;5083045;28;20048;-64
2022/07/21 09:27:11;;;;;;;15.30;5.88;;;;;;;21.55;69.89;101628.03;5053387;28;20068;-64
2022/07/21 09:29:49;;;;;;;7.45;5.50;;;;;;;21.48;70.00;101627.56;5080642;28;20037;-64
2022/07/21 09:32:31;;;;;;;17.63;6.22;;;;;;;21.50;71.50;101638.22;5073031;28;20060;-64
2022/07/21 09:35:07;;;;;;;12.77;6.32;;;;;;;21.47;71.82;101630.34;5072235;28;20044;-64
2022/07/21 09:37:37;;;;;;;10.65;6.03;;;;;;;21.40;72.94;101641.47;5072019;28;20084;-64
2022/07/21 09:40:12;;;;;;;9.48;6.68;;;;;;;21.21;73.81;101651.66;5069286;28;20041;-65
2022/07/21 09:42:51;;;;;;;14.20;7.35;;;;;;;21.05;74.34;101651.75;5071201;28;20482;-66
2022/07/21 09:45:20;;;;;;;12.02;7.50;;;;;;;20.93;75.39;101646.19;5071347;28;20045;-64
2022/07/21 09:47:47;;;;;;;9.00;7.95;;;;;;;20.82;76.26;101654.00;5072006;28;20064;-71
2022/07/21 09:50:17;;;;;;;11.82;8.52;;;;;;;20.73;77.26;101650.03;5066799;28;20041;-72
2022/07/21 09:52:57;;;;;;;14.25;9.18;;;;;;;20.71;77.63;101651.94;5063327;28;20487;-73
2022/07/21 09:55:28;;;;;;;15.02;9.23;;;;;;;20.65;78.34;101655.00;5069260;28;20045;-72
2022/07/21 09:57:55;;;;;;;9.85;8.43;;;;;;;20.55;78.45;101651.97;5069286;28;20112;-73
2022/07/21 10:00:22;;;;;;;13.43;8.05;;;;;;;20.38;79.12;101654.81;5067279;28;20045;-71
2022/07/21 10:02:50;;;;;;;13.25;8.30;;;;;;;20.27;79.35;101663.50;5068118;28;20085;-72
2022/07/21 10:05:21;;;;;;;12.80;8.63;;;;;;;20.16;80.02;101662.31;5064289;28;20049;-71
2022/07/21 10:08:02;;;;;;;12.07;8.15;;;;;;;20.11;80.71;101667.03;5071505;28;20099;-72
2022/07/21 10:10:33;;;;;;;11.15;5.63;;;;;;;20.10;81.09;101665.31;5067195;28;20144;-72
2022/07/21 10:13:21;;;;;;;10.80;6.25;;;;;;;19.99;81.52;101668.63;5073114;28;20044;-72
2022/07/21 10:15:50;;;;;;;9.70;6.18;;;;;;;19.94;81.93;101664.47;5068695;28;20116;-73
2022/07/21 10:18:21;;;;;;;11.55;6.40;;;;;;;19.86;82.46;101664.91;5067731;28;20496;-73
2022/07/21 10:20:59;;;;;;;10.10;6.28;;;;;;;19.73;82.75;101667.38;5068482;28;20033;-74
2022/07/21 10:23:39;;;;;;;6.60;5.90;;;;;;;19.69;83.58;101663.13;5070729;28;20041;-72
2022/07/21 10:26:07;;;;;;;8.73;6.00;;;;;;;19.66;83.62;101674.03;5049221;28;20108;-71
2022/07/21 10:28:36;;;;;;;11.18;6.30;;;;;;;19.65;83.50;101669.63;5069717;28;20067;-72
2022/07/21 10:31:21;;;;;;;8.63;6.22;;;;;;;19.67;84.19;101673.94;5068742;28;20041;-72
2022/07/21 10:33:48;;;;;;;9.48;6.05;;;;;;;19.63;83.92;101676.88;5079627;28;20125;-72
2022/07/21 10:36:37;;;;;;;9.10;6.03;;;;;;;19.63;84.45;101679.53;5070672;28;20052;-72
2022/07/21 10:39:10;;;;;;;7.50;5.47;;;;;;;19.62;83.85;101680.50;5057747;28;20046;-73
2022/07/21 10:41:42;;;;;;;8.50;5.45;;;;;;;19.57;83.69;101678.06;5067295;28;20045;-73
2022/07/21 10:44:28;;;;;;;6.85;4.35;;;;;;;19.51;84.04;101687.28;5069688;28;20048;-72
2022/07/21 10:47:06;;;;;;;6.20;4.95;;;;;;;19.45;84.49;101687.63;5068839;28;20037;-72
2022/07/21 10:49:57;;;;;;;7.72;5.00;;;;;;;19.47;84.76;101685.75;5066512;28;20088;-72
2022/07/21 10:52:39;;;;;;;6.03;5.43;;;;;;;19.50;84.23;101695.41;5068441;28;20915;-72
2022/07/21 10:55:11;;;;;;;7.07;5.65;;;;;;;19.54;84.48;101689.81;5068604;28;20041;-72
2022/07/21 10:57:41;;;;;;;7.00;5.20;;;;;;;19.54;83.95;101691.59;5068112;28;20041;-72
2022/07/21 11:00:15;;;;;;;6.97;5.45;;;;;;;19.58;83.78;101693.16;5078374;28;20124;-72
2022/07/21 11:02:42;;;;;;;6.13;5.53;;;;;;;19.57;84.12;101696.78;5067992;28;20029;-72
2022/07/21 11:05:10;;;;;;;6.45;5.75;;;;;;;19.61;84.23;101690.34;5064523;28;20037;-73
2022/07/21 11:08:19;;;;;;;7.63;5.50;;;;;;;19.66;83.72;101692.75;5067249;28;20457;-72
2022/07/21 11:10:51;;;;;;;8.27;5.57;;;;;;;19.64;83.58;101700.00;5065569;28;20068;-72
2022/07/21 11:13:25;;;;;;;7.35;5.70;;;;;;;19.65;83.74;101689.19;5067543;28;20068;-72
2022/07/21 11:16:00;;;;;;;7.32;5.97;;;;;;;19.70;83.70;101696.97;5069653;28;20099;-71
2022/07/21 11:18:31;;;;;;;6.18;5.57;;;;;;;19.75;83.47;101689.56;5067085;28;20124;-73
2022/07/21 11:21:13;;;;;;;6.30;5.13;;;;;;;19.80;82.49;101695.50;5068731;28;20037;-73
2022/07/21 11:23:49;;;;;;;6.57;5.88;;;;;;;19.80;82.89;101697.34;5070585;28;20041;-72
2022/07/21 11:26:25;;;;;;;5.95;5.22;;;;;;;19.86;83.21;101705.03;5071487;28;21597;-72